createdAt,value
2018-01-20T00:01:09.725Z,4.90
2018-01-20T00:03:37.249Z,4.90
2018-01-20T00:06:04.745Z,4.90
2018-01-20T00:08:32.257Z,4.90
2018-01-20T00:11:11.710Z,4.90
2018-01-20T00:13:39.221Z,5.00
2018-01-20T00:16:06.719Z,5.00
2018-01-20T00:18:34.315Z,5.00
2018-01-20T00:21:01.813Z,5.00
2018-01-20T00:23:30.098Z,5.00
2018-01-20T00:26:03.334Z,5.00
2018-01-20T00:28:30.842Z,5.00
2018-01-20T00:30:59.118Z,5.00
2018-01-20T00:33:27.390Z,5.00
2018-01-20T00:35:55.738Z,5.00
2018-01-20T00:38:23.241Z,5.00
2018-01-20T00:40:51.525Z,5.00
2018-01-20T00:43:19.035Z,5.00
2018-01-20T00:45:46.555Z,5.00
2018-01-20T00:48:14.053Z,5.00
2018-01-20T00:50:41.573Z,5.00
2018-01-20T00:53:09.074Z,5.00
2018-01-20T00:55:36.611Z,5.00
2018-01-20T00:58:04.109Z,5.00
2018-01-20T01:00:31.625Z,5.00
2018-01-20T01:02:59.125Z,5.00
2018-01-20T01:05:26.636Z,4.90
2018-01-20T01:07:54.145Z,4.90
2018-01-20T01:10:22.044Z,4.90
2018-01-20T01:12:49.541Z,4.90
2018-01-20T01:15:17.057Z,4.90
2018-01-20T01:17:44.550Z,4.90
2018-01-20T01:20:12.069Z,4.90
2018-01-20T01:22:39.570Z,4.90
2018-01-20T01:25:07.085Z,4.90
2018-01-20T01:27:34.577Z,4.90
2018-01-20T01:30:02.098Z,4.90
2018-01-20T01:32:29.617Z,4.90
2018-01-20T01:34:57.130Z,4.90
2018-01-20T01:37:24.621Z,4.90
2018-01-20T01:39:52.139Z,4.90
2018-01-20T01:42:20.442Z,4.90
2018-01-20T01:44:47.961Z,4.90
2018-01-20T01:47:15.469Z,4.90
2018-01-20T01:49:42.973Z,5.00
2018-01-20T01:52:10.512Z,5.00
2018-01-20T01:54:38.018Z,5.00
2018-01-20T01:57:05.536Z,5.00
2018-01-20T01:59:33.024Z,5.00
2018-01-20T02:02:01.293Z,5.00
2018-01-20T02:04:29.554Z,5.00
2018-01-20T02:06:57.065Z,5.00
2018-01-20T02:09:24.573Z,5.00
2018-01-20T02:11:52.086Z,5.00
2018-01-20T02:14:19.622Z,5.00
2018-01-20T02:16:47.169Z,5.00
2018-01-20T02:19:15.429Z,5.10
2018-01-20T02:21:42.943Z,5.00
2018-01-20T02:24:10.446Z,5.10
2018-01-20T02:26:37.962Z,5.00
2018-01-20T02:29:05.473Z,5.10
2018-01-20T02:31:33.773Z,5.10
2018-01-20T02:34:01.270Z,5.00
2018-01-20T02:36:28.786Z,5.00
2018-01-20T02:38:56.282Z,5.00
2018-01-20T02:41:23.807Z,5.00
2018-01-20T02:43:51.319Z,5.00
2018-01-20T02:46:18.829Z,4.90
2018-01-20T02:48:46.338Z,4.90
2018-01-20T02:51:15.386Z,4.90
2018-01-20T02:53:42.873Z,4.90
2018-01-20T02:56:11.210Z,4.80
2018-01-20T02:58:38.705Z,4.80
2018-01-20T03:01:06.223Z,4.80
2018-01-20T03:03:34.496Z,4.80
2018-01-20T03:06:02.777Z,4.80
2018-01-20T03:08:31.040Z,4.70
2018-01-20T03:10:59.329Z,4.70
2018-01-20T03:13:27.587Z,4.70
2018-01-20T03:15:55.096Z,4.70
2018-01-20T03:18:22.593Z,4.70
2018-01-20T03:20:50.109Z,4.60
2018-01-20T03:23:17.609Z,4.60
2018-01-20T03:25:45.121Z,4.60
2018-01-20T03:28:12.626Z,4.60
2018-01-20T03:30:40.142Z,4.50
2018-01-20T03:33:07.642Z,4.50
2018-01-20T03:35:35.153Z,4.50
2018-01-20T03:38:02.661Z,4.50
2018-01-20T03:40:30.170Z,4.50
2018-01-20T03:42:57.678Z,4.40
2018-01-20T03:45:25.194Z,4.40
2018-01-20T03:47:52.701Z,4.40
2018-01-20T03:50:20.225Z,4.40
2018-01-20T03:52:47.748Z,4.40
2018-01-20T03:55:15.260Z,4.30
2018-01-20T03:57:42.774Z,4.30
2018-01-20T04:00:10.317Z,4.30
2018-01-20T04:02:38.604Z,4.30
2018-01-20T04:05:06.874Z,4.30
2018-01-20T04:07:35.150Z,4.30
2018-01-20T04:10:03.426Z,4.20
2018-01-20T04:12:31.726Z,4.20
2018-01-20T04:14:59.219Z,4.20
2018-01-20T04:17:26.729Z,4.20
2018-01-20T04:19:54.993Z,4.20
2018-01-20T04:22:23.272Z,4.20
2018-01-20T04:24:51.531Z,4.10
2018-01-20T04:27:19.042Z,4.10
2018-01-20T04:29:46.546Z,4.10
2018-01-20T04:32:14.065Z,4.10
2018-01-20T04:34:41.557Z,4.10
2018-01-20T04:37:09.072Z,4.10
2018-01-20T04:39:36.573Z,4.10
2018-01-20T04:42:04.099Z,4.10
2018-01-20T04:44:31.592Z,4.10
2018-01-20T04:46:59.098Z,4.10
2018-01-20T04:49:26.673Z,4.10
2018-01-20T04:51:54.194Z,4.10
2018-01-20T04:54:22.461Z,4.10
2018-01-20T04:56:49.975Z,4.00
2018-01-20T04:59:17.465Z,4.10
2018-01-20T05:01:44.989Z,4.10
2018-01-20T05:04:12.493Z,4.10
2018-01-20T05:06:40.006Z,4.00
2018-01-20T05:09:07.493Z,4.00
2018-01-20T05:11:35.012Z,4.00
2018-01-20T05:14:02.509Z,4.00
2018-01-20T05:16:30.023Z,4.00
2018-01-20T05:18:57.545Z,4.00
2018-01-20T05:21:25.061Z,4.00
2018-01-20T05:23:53.348Z,4.00
2018-01-20T05:26:20.861Z,4.00
2018-01-20T05:28:48.386Z,4.00
2018-01-20T05:31:15.897Z,4.10
2018-01-20T05:33:43.393Z,4.10
2018-01-20T05:36:10.941Z,4.10
2018-01-20T05:38:38.445Z,4.10
2018-01-20T05:41:06.047Z,4.10
2018-01-20T05:43:33.555Z,4.10
2018-01-20T05:46:01.078Z,4.10
2018-01-20T05:48:28.577Z,4.20
2018-01-20T05:50:56.085Z,4.20
2018-01-20T05:53:23.606Z,4.20
2018-01-20T05:55:51.917Z,4.20
2018-01-20T05:58:19.429Z,4.20
2018-01-20T06:00:46.952Z,4.20
2018-01-20T06:03:14.476Z,4.30
2018-01-20T06:05:41.974Z,4.30
2018-01-20T06:08:09.492Z,4.20
2018-01-20T06:10:37.755Z,4.30
2018-01-20T06:13:06.067Z,4.30
2018-01-20T06:15:33.566Z,4.30
2018-01-20T06:18:01.109Z,4.30
2018-01-20T06:20:28.609Z,4.30
2018-01-20T06:22:56.898Z,4.30
2018-01-20T06:25:25.191Z,4.30
2018-01-20T06:27:52.697Z,4.30
2018-01-20T06:30:20.189Z,4.30
2018-01-20T06:32:48.477Z,4.30
2018-01-20T06:35:15.973Z,4.20
2018-01-20T06:37:43.501Z,4.30
2018-01-20T06:40:10.995Z,4.30
2018-01-20T06:42:38.509Z,4.20
2018-01-20T06:45:06.773Z,4.30
2018-01-20T06:47:35.049Z,4.30
2018-01-20T06:50:02.578Z,4.30
2018-01-20T06:52:30.093Z,4.30
2018-01-20T06:54:57.681Z,4.30
2018-01-20T06:57:25.213Z,4.30
2018-01-20T06:59:53.484Z,4.30
2018-01-20T07:02:21.763Z,4.20
2018-01-20T07:04:50.037Z,4.20
2018-01-20T07:07:18.382Z,4.20
2018-01-20T07:09:45.950Z,4.30
2018-01-20T07:12:13.465Z,4.20
2018-01-20T07:14:40.965Z,4.30
2018-01-20T07:17:08.485Z,4.30
2018-01-20T07:19:35.989Z,4.30
2018-01-20T07:22:03.500Z,4.30
2018-01-20T07:24:31.901Z,4.30
2018-01-20T07:27:00.182Z,4.30
2018-01-20T07:29:28.441Z,4.30
2018-01-20T07:31:55.953Z,4.30
2018-01-20T07:34:24.218Z,4.30
2018-01-20T07:36:51.729Z,4.30
2018-01-20T07:39:19.233Z,4.30
2018-01-20T07:41:47.721Z,4.30
2018-01-20T07:44:15.217Z,4.30
2018-01-20T07:46:42.742Z,4.30
2018-01-20T07:49:10.240Z,4.30
2018-01-20T07:51:37.734Z,4.30
2018-01-20T07:54:05.274Z,4.30
2018-01-20T07:56:32.765Z,4.30
2018-01-20T07:59:00.279Z,4.30
2018-01-20T08:01:27.778Z,4.30
2018-01-20T08:03:55.293Z,4.40
2018-01-20T08:06:22.789Z,4.40
2018-01-20T08:08:50.309Z,4.40
2018-01-20T08:11:17.818Z,4.40
2018-01-20T08:13:45.319Z,4.40
2018-01-20T08:16:12.821Z,4.40
2018-01-20T08:18:40.385Z,4.40
2018-01-20T08:21:07.893Z,4.40
2018-01-20T08:23:35.412Z,4.40
2018-01-20T08:26:02.913Z,4.40
2018-01-20T08:28:30.421Z,4.50
2018-01-20T08:30:57.938Z,4.50
2018-01-20T08:33:25.445Z,4.50
2018-01-20T08:35:52.953Z,4.50
2018-01-20T08:38:20.474Z,4.50
2018-01-20T08:40:47.997Z,4.60
2018-01-20T08:43:15.518Z,4.50
2018-01-20T08:45:43.022Z,4.60
2018-01-20T08:48:10.590Z,4.60
2018-01-20T08:50:38.106Z,4.60
2018-01-20T08:53:05.625Z,4.60
2018-01-20T08:55:33.118Z,4.60
2018-01-20T08:58:00.693Z,4.70
2018-01-20T09:00:28.189Z,4.70
2018-01-20T09:02:55.713Z,4.70
2018-01-20T09:05:24.133Z,4.80
2018-01-20T09:07:51.653Z,4.80
2018-01-20T09:10:19.153Z,4.80
2018-01-20T09:12:46.683Z,4.80
2018-01-20T09:15:14.169Z,4.80
2018-01-20T09:17:41.697Z,4.80
2018-01-20T09:20:09.231Z,4.90
2018-01-20T09:22:36.738Z,4.90
2018-01-20T09:25:04.241Z,4.90
2018-01-20T09:27:31.805Z,5.00
2018-01-20T09:29:59.302Z,5.00
2018-01-20T09:32:26.822Z,5.00
2018-01-20T09:34:54.340Z,5.10
2018-01-20T09:37:21.876Z,5.10
2018-01-20T09:39:50.158Z,5.20
2018-01-20T09:42:17.680Z,5.10
2018-01-20T09:44:45.191Z,5.20
2018-01-20T09:47:12.691Z,5.20
2018-01-20T09:49:40.223Z,5.30
2018-01-20T09:52:07.717Z,5.20
2018-01-20T09:54:35.226Z,5.30
2018-01-20T09:57:02.732Z,5.30
2018-01-20T09:59:30.241Z,5.30
2018-01-20T10:01:57.757Z,5.40
2018-01-20T10:04:25.273Z,5.40
2018-01-20T10:06:52.758Z,5.40
2018-01-20T10:09:21.036Z,5.40
2018-01-20T10:11:49.310Z,5.50
2018-01-20T10:14:17.600Z,5.50
2018-01-20T10:16:45.865Z,5.60
2018-01-20T10:19:14.134Z,5.60
2018-01-20T10:21:42.418Z,5.70
2018-01-20T10:24:10.683Z,5.70
2018-01-20T10:26:38.973Z,5.70
2018-01-20T10:29:07.245Z,5.70
2018-01-20T10:31:35.522Z,5.70
2018-01-20T10:34:03.777Z,5.80
2018-01-20T10:36:31.289Z,5.80
2018-01-20T10:38:58.789Z,5.80
2018-01-20T10:41:26.305Z,5.80
2018-01-20T10:43:53.862Z,5.80
2018-01-20T10:46:21.356Z,5.80
2018-01-20T10:48:48.883Z,5.80
2018-01-20T10:51:17.219Z,5.70
2018-01-20T10:53:44.729Z,5.70
2018-01-20T10:56:12.222Z,5.70
2018-01-20T10:58:39.734Z,5.80
2018-01-20T11:01:07.234Z,5.80
2018-01-20T11:03:34.754Z,5.80
2018-01-20T11:06:02.241Z,5.80
2018-01-20T11:08:29.769Z,5.90
2018-01-20T11:10:57.261Z,5.90
2018-01-20T11:13:24.753Z,5.90
2018-01-20T11:15:53.034Z,6.00
2018-01-20T11:18:21.297Z,6.00
2018-01-20T11:20:49.585Z,6.10
2018-01-20T11:23:17.102Z,6.10
2018-01-20T11:25:44.638Z,6.20
2018-01-20T11:28:12.133Z,6.20
2018-01-20T11:30:39.649Z,6.30
2018-01-20T11:33:07.141Z,6.30
2018-01-20T11:35:34.652Z,6.40
2018-01-20T11:38:02.909Z,6.40
2018-01-20T11:40:30.424Z,6.40
2018-01-20T11:42:57.923Z,6.40
2018-01-20T11:45:25.497Z,6.50
2018-01-20T11:47:53.798Z,6.50
2018-01-20T11:50:21.301Z,6.50
2018-01-20T11:52:48.813Z,6.60
2018-01-20T11:55:16.297Z,6.60
2018-01-20T11:57:43.810Z,6.60
2018-01-20T12:00:12.082Z,6.70
2018-01-20T12:02:40.366Z,6.70
2018-01-20T12:05:08.630Z,6.70
2018-01-20T12:07:36.146Z,6.70
2018-01-20T12:10:03.647Z,6.70
2018-01-20T12:12:31.164Z,6.70
2018-01-20T12:14:58.662Z,6.70
2018-01-20T12:17:26.176Z,6.70
2018-01-20T12:19:53.677Z,6.70
2018-01-20T12:22:21.197Z,6.60
2018-01-20T12:24:48.702Z,6.70
2018-01-20T12:27:16.229Z,6.60
2018-01-20T12:29:43.743Z,6.70
2018-01-20T12:32:12.022Z,6.60
2018-01-20T12:34:39.538Z,6.60
2018-01-20T12:37:07.046Z,6.60
2018-01-20T12:39:34.551Z,6.60
2018-01-20T12:42:02.058Z,6.60
2018-01-20T12:44:29.574Z,6.60
2018-01-20T12:46:57.085Z,6.60
2018-01-20T12:49:24.601Z,6.60
2018-01-20T12:51:52.133Z,6.60
2018-01-20T12:54:19.624Z,6.60
2018-01-20T12:56:47.139Z,6.60
2018-01-20T12:59:14.637Z,6.60
2018-01-20T13:01:42.149Z,6.60
2018-01-20T13:04:09.654Z,6.60
2018-01-20T13:06:37.168Z,6.60
2018-01-20T13:09:04.669Z,6.60
2018-01-20T13:11:32.189Z,6.70
2018-01-20T13:13:59.693Z,6.70
2018-01-20T13:16:27.205Z,6.70
2018-01-20T13:18:54.713Z,6.70
2018-01-20T13:21:22.221Z,6.70
2018-01-20T13:23:49.730Z,6.70
2018-01-20T13:26:17.246Z,6.80
2018-01-20T13:28:44.752Z,6.80
2018-01-20T13:31:13.062Z,6.90
2018-01-20T13:33:40.579Z,6.80
2018-01-20T13:36:08.087Z,6.90
2018-01-20T13:38:36.353Z,6.90
2018-01-20T13:41:03.907Z,6.90
2018-01-20T13:43:31.416Z,6.90
2018-01-20T13:45:58.917Z,7.00
2018-01-20T13:48:27.183Z,7.00
2018-01-20T13:50:55.499Z,7.00
2018-01-20T13:53:23.079Z,7.00
2018-01-20T13:55:50.548Z,7.00
2018-01-20T13:58:18.058Z,7.00
2018-01-20T14:00:45.557Z,7.10
2018-01-20T14:03:13.842Z,7.10
2018-01-20T14:05:41.365Z,7.10
2018-01-20T14:08:08.878Z,7.10
2018-01-20T14:10:36.394Z,7.10
2018-01-20T14:13:03.918Z,7.10
2018-01-20T14:15:32.193Z,7.10
2018-01-20T14:18:00.470Z,7.10
2018-01-20T14:20:29.246Z,7.10
2018-01-20T14:22:56.783Z,6.80
2018-01-20T14:25:24.273Z,7.10
2018-01-20T14:27:52.554Z,7.10
2018-01-20T14:30:20.829Z,7.00
2018-01-20T14:32:49.113Z,7.10
2018-01-20T14:35:17.406Z,7.10
2018-01-20T14:37:44.941Z,7.00
2018-01-20T14:40:13.216Z,7.10
2018-01-20T14:42:41.523Z,7.00
2018-01-20T14:45:09.025Z,7.00
2018-01-20T14:47:36.537Z,7.00
2018-01-20T14:50:04.037Z,7.00
2018-01-20T14:52:32.316Z,7.00
2018-01-20T14:54:59.809Z,7.00
2018-01-20T14:57:28.095Z,7.00
2018-01-20T14:59:56.365Z,7.00
2018-01-20T15:02:24.641Z,6.90
2018-01-20T15:04:52.937Z,7.00
2018-01-20T15:07:20.450Z,6.90
2018-01-20T15:09:47.953Z,7.00
2018-01-20T15:12:15.533Z,6.90
2018-01-20T15:14:43.030Z,6.90
2018-01-20T15:17:10.538Z,6.90
2018-01-20T15:19:38.033Z,6.90
2018-01-20T15:22:05.554Z,6.90
2018-01-20T15:24:33.053Z,6.90
2018-01-20T15:27:00.575Z,6.90
2018-01-20T15:29:28.074Z,6.90
2018-01-20T15:31:55.585Z,6.80
2018-01-20T15:34:23.095Z,6.80
2018-01-20T15:36:50.640Z,6.80
2018-01-20T15:39:18.161Z,6.80
2018-01-20T15:41:45.657Z,6.80
2018-01-20T15:44:13.181Z,6.80
2018-01-20T15:46:40.681Z,6.70
2018-01-20T15:49:08.201Z,6.70
2018-01-20T15:51:35.747Z,6.70
2018-01-20T15:54:03.265Z,6.70
2018-01-20T15:56:30.816Z,6.70
2018-01-20T15:58:58.326Z,6.70
2018-01-20T16:01:25.829Z,6.70
2018-01-20T16:03:53.341Z,6.60
2018-01-20T16:06:20.887Z,6.60
2018-01-20T16:08:49.175Z,6.60
2018-01-20T16:11:16.689Z,6.60
2018-01-20T16:13:44.226Z,6.60
2018-01-20T16:16:11.780Z,6.60
2018-01-20T16:18:39.339Z,6.60
2018-01-20T16:21:06.820Z,6.60
2018-01-20T16:23:35.098Z,6.60
2018-01-20T16:26:02.603Z,6.60
2018-01-20T16:28:30.894Z,6.50
2018-01-20T16:30:58.454Z,6.50
2018-01-20T16:33:25.981Z,6.50
2018-01-20T16:35:53.497Z,6.50
2018-01-20T16:38:21.025Z,6.50
2018-01-20T16:40:49.289Z,6.50
2018-01-20T16:43:17.581Z,6.50
2018-01-20T16:45:45.082Z,6.50
2018-01-20T16:48:12.632Z,6.50
2018-01-20T16:50:40.130Z,6.50
2018-01-20T16:53:07.657Z,6.50
2018-01-20T16:55:35.154Z,6.50
2018-01-20T16:58:03.466Z,6.40
2018-01-20T17:00:30.974Z,6.40
2018-01-20T17:02:58.478Z,6.40
2018-01-20T17:05:26.005Z,6.40
2018-01-20T17:07:53.501Z,6.40
2018-01-20T17:10:21.018Z,6.40
2018-01-20T17:12:48.506Z,6.40
2018-01-20T17:15:16.782Z,6.40
2018-01-20T17:17:45.041Z,6.40
2018-01-20T17:20:12.573Z,6.30
2018-01-20T17:22:40.071Z,6.30
2018-01-20T17:25:08.345Z,6.30
2018-01-20T17:27:36.611Z,6.30
2018-01-20T17:30:04.125Z,6.30
2018-01-20T17:32:31.624Z,6.30
2018-01-20T17:34:59.140Z,6.20
2018-01-20T17:37:26.657Z,6.20
2018-01-20T17:39:54.934Z,6.20
2018-01-20T17:42:23.197Z,6.20
2018-01-20T17:44:50.715Z,6.10
2018-01-20T17:47:18.234Z,6.10
2018-01-20T17:49:45.769Z,6.10
2018-01-20T17:52:13.289Z,6.10
2018-01-20T17:54:40.817Z,6.10
2018-01-20T17:57:09.086Z,6.00
2018-01-20T17:59:37.512Z,6.00
2018-01-20T18:02:05.069Z,6.00
2018-01-20T18:04:32.580Z,6.00
2018-01-20T18:07:00.899Z,5.90
2018-01-20T18:09:28.416Z,5.90
2018-01-20T18:11:56.735Z,5.90
2018-01-20T18:14:24.278Z,5.90
2018-01-20T18:16:51.777Z,5.90
2018-01-20T18:19:19.342Z,5.90
2018-01-20T18:21:46.845Z,5.80
2018-01-20T18:24:15.149Z,5.80
2018-01-20T18:26:42.712Z,5.70
2018-01-20T18:29:10.252Z,5.70
2018-01-20T18:31:37.807Z,5.70
2018-01-20T18:34:05.297Z,5.70
2018-01-20T18:36:32.861Z,5.70
2018-01-20T18:39:00.362Z,5.60
2018-01-20T18:41:28.683Z,5.60
2018-01-20T18:43:56.241Z,5.60
2018-01-20T18:46:23.827Z,5.50
2018-01-20T18:48:51.321Z,5.50
2018-01-20T18:51:19.647Z,5.50
2018-01-20T18:53:47.154Z,5.50
2018-01-20T18:56:15.442Z,5.50
2018-01-20T18:58:43.735Z,5.50
2018-01-20T19:01:11.304Z,5.50
2018-01-20T19:03:38.847Z,5.50
2018-01-20T19:06:06.432Z,5.50
2018-01-20T19:08:33.933Z,5.50
2018-01-20T19:11:01.986Z,5.50
2018-01-20T19:13:29.491Z,5.40
2018-01-20T19:15:57.046Z,5.40
2018-01-20T19:18:25.305Z,5.40
2018-01-20T19:20:53.748Z,5.40
2018-01-20T19:23:21.250Z,5.40
2018-01-20T19:25:49.537Z,5.40
2018-01-20T19:28:17.794Z,5.40
2018-01-20T19:30:45.377Z,5.40
2018-01-20T19:33:13.699Z,5.40
2018-01-20T19:35:41.198Z,5.40
2018-01-20T19:38:08.760Z,5.40
2018-01-20T19:40:36.308Z,5.40
2018-01-20T19:43:03.926Z,5.40
2018-01-20T19:45:31.426Z,5.40
2018-01-20T19:47:59.010Z,5.30
2018-01-20T19:50:27.321Z,5.30
2018-01-20T19:52:54.877Z,5.30
2018-01-20T19:55:22.445Z,5.30
2018-01-20T19:57:49.968Z,5.30
2018-01-20T20:00:18.321Z,5.30
2018-01-20T20:02:45.933Z,5.30
2018-01-20T20:05:13.501Z,5.30
2018-01-20T20:07:40.999Z,5.30
2018-01-20T20:10:08.578Z,5.30
2018-01-20T20:12:36.132Z,5.30
2018-01-20T20:15:03.697Z,5.30
2018-01-20T20:17:32.978Z,5.30
2018-01-20T20:20:00.490Z,5.30
2018-01-20T20:22:27.977Z,5.30
2018-01-20T20:24:55.550Z,5.30
2018-01-20T20:27:23.088Z,5.30
2018-01-20T20:29:50.648Z,5.30
2018-01-20T20:32:18.224Z,5.30
2018-01-20T20:34:45.810Z,5.30
2018-01-20T20:37:13.381Z,5.30
2018-01-20T20:39:40.960Z,5.30
2018-01-20T20:42:09.298Z,5.30
2018-01-20T20:44:36.859Z,5.20
2018-01-20T20:47:04.415Z,5.30
2018-01-20T20:49:32.005Z,5.30
2018-01-20T20:52:00.275Z,5.20
2018-01-20T20:54:29.641Z,5.20
2018-01-20T20:56:57.372Z,5.20
2018-01-20T20:59:24.946Z,5.20
2018-01-20T21:01:52.490Z,5.20
2018-01-20T21:04:20.064Z,5.20
2018-01-20T21:06:48.669Z,5.20
2018-01-20T21:09:16.209Z,5.20
2018-01-20T21:11:43.813Z,5.20
2018-01-20T21:14:11.356Z,5.20
2018-01-20T21:16:38.945Z,5.20
2018-01-20T21:19:06.455Z,5.20
2018-01-20T21:21:34.021Z,5.20
2018-01-20T21:24:01.509Z,5.20
2018-01-20T21:26:29.092Z,5.20
2018-01-20T21:28:56.638Z,5.20
2018-01-20T21:31:24.216Z,5.20
2018-01-20T21:33:52.546Z,5.20
2018-01-20T21:36:20.061Z,5.20
2018-01-20T21:38:48.399Z,5.20
2018-01-20T21:41:15.981Z,5.10
2018-01-20T21:43:43.542Z,5.10
2018-01-20T21:46:11.879Z,5.10
2018-01-20T21:48:39.411Z,5.10
2018-01-20T21:51:07.022Z,5.10
2018-01-20T21:53:34.656Z,5.10
2018-01-20T21:56:02.233Z,5.10
2018-01-20T21:58:29.888Z,5.10
2018-01-20T22:00:57.527Z,5.10
2018-01-20T22:03:25.072Z,5.10
2018-01-20T22:05:52.760Z,5.10
2018-01-20T22:08:20.322Z,5.10
2018-01-20T22:10:48.583Z,5.10
2018-01-20T22:13:16.144Z,5.10
2018-01-20T22:15:43.646Z,5.10
2018-01-20T22:18:11.178Z,5.10
2018-01-20T22:20:38.830Z,5.10
2018-01-20T22:23:06.343Z,5.10
2018-01-20T22:25:33.896Z,5.10
2018-01-20T22:28:01.473Z,5.10
2018-01-20T22:30:29.733Z,5.10
2018-01-20T22:32:57.237Z,5.10
2018-01-20T22:35:24.733Z,5.10
2018-01-20T22:37:52.300Z,5.00
2018-01-20T22:40:19.852Z,5.10
2018-01-20T22:42:47.449Z,5.10
2018-01-20T22:45:15.725Z,5.00
2018-01-20T22:47:44.053Z,5.00
2018-01-20T22:50:11.583Z,5.00
2018-01-20T22:52:39.121Z,5.10
2018-01-20T22:55:06.613Z,5.10
2018-01-20T22:57:34.189Z,5.00
2018-01-20T23:00:01.735Z,5.10
2018-01-20T23:02:29.307Z,5.00
2018-01-20T23:04:56.847Z,5.10
2018-01-20T23:07:24.366Z,5.10
2018-01-20T23:09:51.911Z,5.10
2018-01-20T23:12:19.459Z,5.10
2018-01-20T23:14:46.995Z,5.10
2018-01-20T23:17:14.505Z,5.10
2018-01-20T23:19:42.015Z,5.10
2018-01-20T23:22:09.563Z,5.10
2018-01-20T23:24:37.079Z,5.10
2018-01-20T23:27:04.602Z,5.10
2018-01-20T23:29:32.110Z,5.20
2018-01-20T23:31:59.749Z,5.20
2018-01-20T23:34:28.057Z,5.20
2018-01-20T23:36:56.337Z,5.20
2018-01-20T23:39:24.609Z,5.20
2018-01-20T23:41:52.943Z,5.20
2018-01-20T23:44:20.448Z,5.20
2018-01-20T23:46:48.783Z,5.30
2018-01-20T23:49:16.289Z,5.20
2018-01-20T23:51:44.594Z,5.30
2018-01-20T23:54:12.097Z,5.20
2018-01-20T23:56:39.656Z,5.20
2018-01-20T23:59:07.149Z,5.30
